Terminal Aerodrome Forecast
Issued by NWS

Home | Current Version | Previous Version | Graphics & Text | Print | Product List | Glossary On
Versions: 1 2 3 4 5 6 7 8 9 10 11 12 13 14 15 16 17
000
FTUS43 KBIS 091300 AAA
TAFMOT
TAF AMD
KMOT 091326Z 0913/1012 13003KT P6SM BKN050
     FM091600 09006KT P6SM FEW040
     FM091900 13008KT P6SM SCT050
     FM100400 16013KT P6SM SKC=

USA.gov is the U.S. government's official web portal to all federal, state and local government web resources and services.